sensor_id;sensor_type;location;lat;lon;timestamp;P1;durP1;ratioP1;P2;durP2;ratioP2
64459;SDS011;50828;53.756;21.140;2023-09-18T00:00:33;9.60;;;6.60;;
64459;SDS011;50828;53.756;21.140;2023-09-18T00:05:40;9.00;;;6.40;;
64459;SDS011;50828;53.756;21.140;2023-09-18T00:10:48;9.70;;;6.60;;
64459;SDS011;50828;53.756;21.140;2023-09-18T00:15:58;8.20;;;6.30;;
64459;SDS011;50828;53.756;21.140;2023-09-18T00:21:06;8.30;;;6.80;;
64459;SDS011;50828;53.756;21.140;2023-09-18T00:26:14;7.30;;;6.30;;
64459;SDS011;50828;53.756;21.140;2023-09-18T00:31:23;10.50;;;7.50;;
64459;SDS011;50828;53.756;21.140;2023-09-18T00:36:30;11.00;;;8.00;;
64459;SDS011;50828;53.756;21.140;2023-09-18T00:41:38;11.60;;;8.40;;
64459;SDS011;50828;53.756;21.140;2023-09-18T00:46:47;14.10;;;8.70;;
64459;SDS011;50828;53.756;21.140;2023-09-18T00:51:56;8.30;;;6.70;;
64459;SDS011;50828;53.756;21.140;2023-09-18T00:57:04;9.30;;;6.30;;
64459;SDS011;50828;53.756;21.140;2023-09-18T01:02:14;7.30;;;5.90;;
64459;SDS011;50828;53.756;21.140;2023-09-18T01:07:25;12.10;;;6.70;;
64459;SDS011;50828;53.756;21.140;2023-09-18T01:12:33;9.10;;;6.30;;
64459;SDS011;50828;53.756;21.140;2023-09-18T01:17:47;8.10;;;6.10;;
64459;SDS011;50828;53.756;21.140;2023-09-18T01:22:56;9.50;;;6.90;;
64459;SDS011;50828;53.756;21.140;2023-09-18T01:28:04;10.20;;;7.40;;
64459;SDS011;50828;53.756;21.140;2023-09-18T01:33:11;9.60;;;6.20;;
64459;SDS011;50828;53.756;21.140;2023-09-18T01:38:20;12.20;;;7.60;;
64459;SDS011;50828;53.756;21.140;2023-09-18T01:43:28;10.90;;;7.40;;
64459;SDS011;50828;53.756;21.140;2023-09-18T01:48:36;8.40;;;6.50;;
64459;SDS011;50828;53.756;21.140;2023-09-18T01:53:51;9.50;;;7.10;;
64459;SDS011;50828;53.756;21.140;2023-09-18T01:58:59;10.40;;;7.00;;
64459;SDS011;50828;53.756;21.140;2023-09-18T02:04:08;12.70;;;7.20;;
64459;SDS011;50828;53.756;21.140;2023-09-18T02:09:35;11.80;;;8.10;;
64459;SDS011;50828;53.756;21.140;2023-09-18T02:14:43;9.70;;;7.10;;
64459;SDS011;50828;53.756;21.140;2023-09-18T02:19:51;10.80;;;7.60;;
64459;SDS011;50828;53.756;21.140;2023-09-18T02:24:59;10.30;;;6.80;;
64459;SDS011;50828;53.756;21.140;2023-09-18T02:30:07;11.50;;;6.80;;
64459;SDS011;50828;53.756;21.140;2023-09-18T02:35:16;10.50;;;6.70;;
64459;SDS011;50828;53.756;21.140;2023-09-18T02:40:24;11.80;;;7.20;;
64459;SDS011;50828;53.756;21.140;2023-09-18T02:45:31;11.00;;;7.30;;
64459;SDS011;50828;53.756;21.140;2023-09-18T02:50:39;10.70;;;6.90;;
64459;SDS011;50828;53.756;21.140;2023-09-18T02:55:46;12.20;;;7.40;;
64459;SDS011;50828;53.756;21.140;2023-09-18T03:00:54;10.00;;;6.80;;
64459;SDS011;50828;53.756;21.140;2023-09-18T03:06:04;12.10;;;6.70;;
64459;SDS011;50828;53.756;21.140;2023-09-18T03:11:13;8.80;;;5.80;;
64459;SDS011;50828;53.756;21.140;2023-09-18T03:16:20;11.00;;;6.50;;
64459;SDS011;50828;53.756;21.140;2023-09-18T03:21:28;9.20;;;6.70;;
64459;SDS011;50828;53.756;21.140;2023-09-18T03:26:37;9.60;;;6.70;;
64459;SDS011;50828;53.756;21.140;2023-09-18T03:31:45;9.20;;;6.50;;
64459;SDS011;50828;53.756;21.140;2023-09-18T03:36:53;9.00;;;6.30;;
64459;SDS011;50828;53.756;21.140;2023-09-18T03:42:01;13.60;;;7.80;;
64459;SDS011;50828;53.756;21.140;2023-09-18T03:47:09;9.90;;;7.20;;
64459;SDS011;50828;53.756;21.140;2023-09-18T03:52:17;11.20;;;6.70;;
64459;SDS011;50828;53.756;21.140;2023-09-18T03:57:25;11.90;;;7.80;;
64459;SDS011;50828;53.756;21.140;2023-09-18T04:02:33;10.00;;;7.00;;
64459;SDS011;50828;53.756;21.140;2023-09-18T04:07:41;8.70;;;6.50;;
64459;SDS011;50828;53.756;21.140;2023-09-18T04:12:50;10.90;;;7.00;;
64459;SDS011;50828;53.756;21.140;2023-09-18T04:17:58;9.50;;;7.00;;
64459;SDS011;50828;53.756;21.140;2023-09-18T04:23:19;11.00;;;7.50;;
64459;SDS011;50828;53.756;21.140;2023-09-18T04:33:34;10.60;;;7.10;;
64459;SDS011;50828;53.756;21.140;2023-09-18T04:38:42;10.40;;;7.50;;
64459;SDS011;50828;53.756;21.140;2023-09-18T04:43:50;11.30;;;7.70;;
64459;SDS011;50828;53.756;21.140;2023-09-18T04:48:58;10.30;;;6.60;;
64459;SDS011;50828;53.756;21.140;2023-09-18T04:54:07;9.30;;;6.80;;
64459;SDS011;50828;53.756;21.140;2023-09-18T04:59:15;9.80;;;6.80;;
64459;SDS011;50828;53.756;21.140;2023-09-18T05:04:23;9.70;;;6.30;;
64459;SDS011;50828;53.756;21.140;2023-09-18T05:09:31;10.10;;;6.50;;
64459;SDS011;50828;53.756;21.140;2023-09-18T05:14:39;8.80;;;6.50;;
64459;SDS011;50828;53.756;21.140;2023-09-18T05:19:47;9.10;;;6.30;;
64459;SDS011;50828;53.756;21.140;2023-09-18T05:24:54;10.60;;;6.80;;
64459;SDS011;50828;53.756;21.140;2023-09-18T05:30:02;10.10;;;6.80;;
64459;SDS011;50828;53.756;21.140;2023-09-18T05:35:12;10.90;;;7.00;;
64459;SDS011;50828;53.756;21.140;2023-09-18T05:40:20;11.70;;;7.20;;
64459;SDS011;50828;53.756;21.140;2023-09-18T05:45:30;11.40;;;7.10;;
64459;SDS011;50828;53.756;21.140;2023-09-18T05:50:38;11.60;;;7.30;;
64459;SDS011;50828;53.756;21.140;2023-09-18T05:55:46;11.80;;;7.60;;
64459;SDS011;50828;53.756;21.140;2023-09-18T06:00:54;9.60;;;7.10;;
64459;SDS011;50828;53.756;21.140;2023-09-18T06:06:02;10.60;;;7.10;;
64459;SDS011;50828;53.756;21.140;2023-09-18T06:11:10;10.80;;;7.30;;
64459;SDS011;50828;53.756;21.140;2023-09-18T06:16:18;11.00;;;7.80;;
64459;SDS011;50828;53.756;21.140;2023-09-18T06:21:25;11.10;;;7.60;;
64459;SDS011;50828;53.756;21.140;2023-09-18T06:26:33;13.90;;;7.60;;
64459;SDS011;50828;53.756;21.140;2023-09-18T06:31:41;10.80;;;7.90;;
64459;SDS011;50828;53.756;21.140;2023-09-18T06:36:48;11.10;;;7.70;;
64459;SDS011;50828;53.756;21.140;2023-09-18T06:41:55;11.50;;;8.50;;
64459;SDS011;50828;53.756;21.140;2023-09-18T06:47:03;12.10;;;8.50;;
64459;SDS011;50828;53.756;21.140;2023-09-18T06:52:11;11.90;;;8.10;;
64459;SDS011;50828;53.756;21.140;2023-09-18T06:57:19;12.10;;;8.20;;
64459;SDS011;50828;53.756;21.140;2023-09-18T07:02:26;16.00;;;7.70;;
64459;SDS011;50828;53.756;21.140;2023-09-18T07:07:34;14.50;;;9.20;;
64459;SDS011;50828;53.756;21.140;2023-09-18T07:12:41;12.20;;;8.90;;
64459;SDS011;50828;53.756;21.140;2023-09-18T07:17:49;12.80;;;8.40;;
64459;SDS011;50828;53.756;21.140;2023-09-18T07:22:57;14.50;;;8.70;;
64459;SDS011;50828;53.756;21.140;2023-09-18T07:28:05;13.10;;;8.20;;
64459;SDS011;50828;53.756;21.140;2023-09-18T07:33:12;13.30;;;8.50;;
64459;SDS011;50828;53.756;21.140;2023-09-18T07:38:21;11.60;;;8.00;;
64459;SDS011;50828;53.756;21.140;2023-09-18T07:43:29;12.50;;;8.00;;
64459;SDS011;50828;53.756;21.140;2023-09-18T07:48:37;11.80;;;7.50;;
64459;SDS011;50828;53.756;21.140;2023-09-18T07:53:44;13.20;;;8.50;;
64459;SDS011;50828;53.756;21.140;2023-09-18T07:58:53;13.50;;;8.50;;
64459;SDS011;50828;53.756;21.140;2023-09-18T08:04:00;12.10;;;8.50;;
64459;SDS011;50828;53.756;21.140;2023-09-18T08:09:09;15.40;;;9.10;;
64459;SDS011;50828;53.756;21.140;2023-09-18T08:14:18;12.00;;;8.60;;
64459;SDS011;50828;53.756;21.140;2023-09-18T08:19:26;11.60;;;8.50;;
64459;SDS011;50828;53.756;21.140;2023-09-18T08:24:34;11.60;;;8.40;;
64459;SDS011;50828;53.756;21.140;2023-09-18T08:29:41;11.00;;;8.50;;
64459;SDS011;50828;53.756;21.140;2023-09-18T08:34:49;11.40;;;8.00;;
64459;SDS011;50828;53.756;21.140;2023-09-18T08:39:56;16.00;;;9.00;;
64459;SDS011;50828;53.756;21.140;2023-09-18T08:45:05;11.30;;;8.10;;
64459;SDS011;50828;53.756;21.140;2023-09-18T08:50:15;13.30;;;9.00;;
64459;SDS011;50828;53.756;21.140;2023-09-18T08:55:24;9.60;;;6.70;;
64459;SDS011;50828;53.756;21.140;2023-09-18T09:00:32;9.10;;;5.70;;
64459;SDS011;50828;53.756;21.140;2023-09-18T09:05:41;8.80;;;6.20;;
64459;SDS011;50828;53.756;21.140;2023-09-18T09:10:49;9.80;;;7.10;;
64459;SDS011;50828;53.756;21.140;2023-09-18T09:15:56;10.50;;;6.20;;
64459;SDS011;50828;53.756;21.140;2023-09-18T09:21:05;8.10;;;6.00;;
64459;SDS011;50828;53.756;21.140;2023-09-18T09:26:16;6.90;;;5.70;;
64459;SDS011;50828;53.756;21.140;2023-09-18T09:31:25;8.50;;;5.90;;
64459;SDS011;50828;53.756;21.140;2023-09-18T09:36:34;9.70;;;6.10;;
64459;SDS011;50828;53.756;21.140;2023-09-18T09:41:46;9.30;;;6.10;;
64459;SDS011;50828;53.756;21.140;2023-09-18T09:46:54;7.30;;;5.90;;
64459;SDS011;50828;53.756;21.140;2023-09-18T09:52:05;9.50;;;6.00;;
64459;SDS011;50828;53.756;21.140;2023-09-18T09:57:26;7.50;;;5.90;;
64459;SDS011;50828;53.756;21.140;2023-09-18T10:02:33;7.00;;;5.20;;
64459;SDS011;50828;53.756;21.140;2023-09-18T10:07:43;7.30;;;5.30;;
64459;SDS011;50828;53.756;21.140;2023-09-18T10:12:51;6.30;;;4.70;;
64459;SDS011;50828;53.756;21.140;2023-09-18T10:18:05;4.90;;;3.60;;
64459;SDS011;50828;53.756;21.140;2023-09-18T10:23:26;5.10;;;3.90;;
64459;SDS011;50828;53.756;21.140;2023-09-18T10:28:44;5.90;;;3.60;;
64459;SDS011;50828;53.756;21.140;2023-09-18T10:33:57;6.80;;;3.80;;
64459;SDS011;50828;53.756;21.140;2023-09-18T10:39:07;5.00;;;3.70;;
64459;SDS011;50828;53.756;21.140;2023-09-18T10:44:17;5.70;;;3.50;;
64459;SDS011;50828;53.756;21.140;2023-09-18T10:49:25;4.10;;;3.50;;
64459;SDS011;50828;53.756;21.140;2023-09-18T10:54:33;4.50;;;3.50;;
64459;SDS011;50828;53.756;21.140;2023-09-18T10:59:45;5.80;;;3.60;;
64459;SDS011;50828;53.756;21.140;2023-09-18T11:04:53;6.10;;;3.80;;
64459;SDS011;50828;53.756;21.140;2023-09-18T11:10:01;5.40;;;3.70;;
64459;SDS011;50828;53.756;21.140;2023-09-18T11:15:34;5.10;;;3.70;;
64459;SDS011;50828;53.756;21.140;2023-09-18T11:20:42;4.80;;;3.80;;
64459;SDS011;50828;53.756;21.140;2023-09-18T11:26:10;6.30;;;4.00;;
64459;SDS011;50828;53.756;21.140;2023-09-18T11:31:21;6.00;;;4.10;;
64459;SDS011;50828;53.756;21.140;2023-09-18T11:36:50;5.70;;;4.10;;
64459;SDS011;50828;53.756;21.140;2023-09-18T11:42:07;5.40;;;4.10;;
64459;SDS011;50828;53.756;21.140;2023-09-18T11:47:17;7.40;;;4.30;;
64459;SDS011;50828;53.756;21.140;2023-09-18T11:52:32;6.00;;;4.30;;
64459;SDS011;50828;53.756;21.140;2023-09-18T11:57:40;7.00;;;4.20;;
64459;SDS011;50828;53.756;21.140;2023-09-18T12:02:52;5.30;;;3.80;;
64459;SDS011;50828;53.756;21.140;2023-09-18T12:08:02;4.70;;;3.90;;
64459;SDS011;50828;53.756;21.140;2023-09-18T12:13:10;5.10;;;3.60;;
64459;SDS011;50828;53.756;21.140;2023-09-18T12:18:19;5.40;;;3.80;;
64459;SDS011;50828;53.756;21.140;2023-09-18T12:23:38;5.20;;;4.10;;
64459;SDS011;50828;53.756;21.140;2023-09-18T12:28:46;6.40;;;4.00;;
64459;SDS011;50828;53.756;21.140;2023-09-18T12:33:54;6.70;;;4.00;;
64459;SDS011;50828;53.756;21.140;2023-09-18T12:39:03;8.40;;;4.80;;
64459;SDS011;50828;53.756;21.140;2023-09-18T12:44:10;6.10;;;4.20;;
64459;SDS011;50828;53.756;21.140;2023-09-18T12:49:20;5.20;;;4.20;;
64459;SDS011;50828;53.756;21.140;2023-09-18T12:54:39;5.40;;;4.10;;
64459;SDS011;50828;53.756;21.140;2023-09-18T12:59:49;5.00;;;3.90;;
64459;SDS011;50828;53.756;21.140;2023-09-18T13:04:58;5.00;;;3.80;;
64459;SDS011;50828;53.756;21.140;2023-09-18T13:10:08;9.30;;;3.90;;
64459;SDS011;50828;53.756;21.140;2023-09-18T13:15:25;6.00;;;4.00;;
64459;SDS011;50828;53.756;21.140;2023-09-18T13:20:35;5.10;;;3.60;;
64459;SDS011;50828;53.756;21.140;2023-09-18T13:25:44;5.50;;;3.60;;
64459;SDS011;50828;53.756;21.140;2023-09-18T13:30:51;5.40;;;3.70;;
64459;SDS011;50828;53.756;21.140;2023-09-18T13:35:59;5.70;;;3.70;;
64459;SDS011;50828;53.756;21.140;2023-09-18T13:41:07;6.00;;;3.70;;
64459;SDS011;50828;53.756;21.140;2023-09-18T13:46:17;3.80;;;3.30;;
64459;SDS011;50828;53.756;21.140;2023-09-18T13:51:25;5.30;;;3.90;;
64459;SDS011;50828;53.756;21.140;2023-09-18T13:56:33;5.60;;;4.20;;
64459;SDS011;50828;53.756;21.140;2023-09-18T14:01:41;6.20;;;4.00;;
64459;SDS011;50828;53.756;21.140;2023-09-18T14:06:49;7.90;;;4.30;;
64459;SDS011;50828;53.756;21.140;2023-09-18T14:11:57;5.10;;;4.10;;
64459;SDS011;50828;53.756;21.140;2023-09-18T14:17:05;5.60;;;4.10;;
64459;SDS011;50828;53.756;21.140;2023-09-18T14:22:14;5.10;;;4.00;;
64459;SDS011;50828;53.756;21.140;2023-09-18T14:27:22;5.30;;;4.20;;
64459;SDS011;50828;53.756;21.140;2023-09-18T14:32:30;5.30;;;4.10;;
64459;SDS011;50828;53.756;21.140;2023-09-18T14:37:40;6.40;;;4.30;;
64459;SDS011;50828;53.756;21.140;2023-09-18T14:42:48;5.10;;;4.20;;
64459;SDS011;50828;53.756;21.140;2023-09-18T14:47:56;4.90;;;4.10;;
64459;SDS011;50828;53.756;21.140;2023-09-18T14:53:04;8.80;;;5.00;;
64459;SDS011;50828;53.756;21.140;2023-09-18T14:58:13;7.30;;;4.20;;
64459;SDS011;50828;53.756;21.140;2023-09-18T15:03:22;5.40;;;4.40;;
64459;SDS011;50828;53.756;21.140;2023-09-18T15:08:29;6.00;;;4.50;;
64459;SDS011;50828;53.756;21.140;2023-09-18T15:13:38;4.70;;;4.20;;
64459;SDS011;50828;53.756;21.140;2023-09-18T15:18:45;6.70;;;4.90;;
64459;SDS011;50828;53.756;21.140;2023-09-18T15:24:01;7.00;;;4.60;;
64459;SDS011;50828;53.756;21.140;2023-09-18T15:29:09;5.00;;;4.40;;
64459;SDS011;50828;53.756;21.140;2023-09-18T15:34:17;7.90;;;5.10;;
64459;SDS011;50828;53.756;21.140;2023-09-18T15:39:24;6.40;;;4.80;;
64459;SDS011;50828;53.756;21.140;2023-09-18T15:44:33;8.00;;;4.70;;
64459;SDS011;50828;53.756;21.140;2023-09-18T15:49:41;6.20;;;4.80;;
64459;SDS011;50828;53.756;21.140;2023-09-18T15:54:49;6.70;;;4.70;;
64459;SDS011;50828;53.756;21.140;2023-09-18T15:59:57;6.60;;;4.60;;
64459;SDS011;50828;53.756;21.140;2023-09-18T16:05:14;5.70;;;4.70;;
64459;SDS011;50828;53.756;21.140;2023-09-18T16:10:23;6.30;;;4.60;;
64459;SDS011;50828;53.756;21.140;2023-09-18T16:15:30;4.90;;;4.20;;
64459;SDS011;50828;53.756;21.140;2023-09-18T16:20:38;7.90;;;4.50;;
64459;SDS011;50828;53.756;21.140;2023-09-18T16:25:46;6.00;;;4.60;;
64459;SDS011;50828;53.756;21.140;2023-09-18T16:30:54;6.10;;;4.90;;
64459;SDS011;50828;53.756;21.140;2023-09-18T16:36:09;6.50;;;4.80;;
64459;SDS011;50828;53.756;21.140;2023-09-18T16:41:16;6.50;;;5.10;;
64459;SDS011;50828;53.756;21.140;2023-09-18T16:46:24;6.50;;;5.10;;
64459;SDS011;50828;53.756;21.140;2023-09-18T16:51:32;7.60;;;5.40;;
64459;SDS011;50828;53.756;21.140;2023-09-18T16:56:39;7.40;;;6.10;;
64459;SDS011;50828;53.756;21.140;2023-09-18T17:01:47;8.20;;;5.60;;
64459;SDS011;50828;53.756;21.140;2023-09-18T17:06:55;9.20;;;5.40;;
64459;SDS011;50828;53.756;21.140;2023-09-18T17:12:02;7.30;;;5.80;;
64459;SDS011;50828;53.756;21.140;2023-09-18T17:17:11;8.40;;;5.70;;
64459;SDS011;50828;53.756;21.140;2023-09-18T17:22:19;6.60;;;5.70;;
64459;SDS011;50828;53.756;21.140;2023-09-18T17:27:27;6.80;;;5.70;;
64459;SDS011;50828;53.756;21.140;2023-09-18T17:32:36;6.50;;;5.30;;
64459;SDS011;50828;53.756;21.140;2023-09-18T17:37:44;12.20;;;5.90;;
64459;SDS011;50828;53.756;21.140;2023-09-18T17:42:52;11.30;;;5.50;;
64459;SDS011;50828;53.756;21.140;2023-09-18T17:48:01;8.80;;;5.70;;
64459;SDS011;50828;53.756;21.140;2023-09-18T17:53:12;7.20;;;6.30;;
64459;SDS011;50828;53.756;21.140;2023-09-18T17:58:20;6.90;;;5.80;;
64459;SDS011;50828;53.756;21.140;2023-09-18T18:03:28;8.60;;;5.70;;
64459;SDS011;50828;53.756;21.140;2023-09-18T18:08:37;8.10;;;5.80;;
64459;SDS011;50828;53.756;21.140;2023-09-18T18:13:45;6.60;;;5.40;;
64459;SDS011;50828;53.756;21.140;2023-09-18T18:18:52;8.60;;;6.00;;
64459;SDS011;50828;53.756;21.140;2023-09-18T18:24:03;11.10;;;5.80;;
64459;SDS011;50828;53.756;21.140;2023-09-18T18:29:13;8.60;;;6.00;;
64459;SDS011;50828;53.756;21.140;2023-09-18T18:34:21;8.30;;;6.00;;
64459;SDS011;50828;53.756;21.140;2023-09-18T18:39:29;7.10;;;5.70;;
64459;SDS011;50828;53.756;21.140;2023-09-18T18:44:37;6.20;;;5.50;;
64459;SDS011;50828;53.756;21.140;2023-09-18T18:49:45;7.70;;;5.60;;
64459;SDS011;50828;53.756;21.140;2023-09-18T18:54:53;8.10;;;5.90;;
64459;SDS011;50828;53.756;21.140;2023-09-18T19:00:01;8.10;;;6.20;;
64459;SDS011;50828;53.756;21.140;2023-09-18T19:05:15;7.60;;;5.80;;
64459;SDS011;50828;53.756;21.140;2023-09-18T19:10:26;9.10;;;6.40;;
64459;SDS011;50828;53.756;21.140;2023-09-18T19:15:34;7.30;;;6.40;;
64459;SDS011;50828;53.756;21.140;2023-09-18T19:20:46;9.60;;;6.70;;
64459;SDS011;50828;53.756;21.140;2023-09-18T19:31:01;8.40;;;6.50;;
64459;SDS011;50828;53.756;21.140;2023-09-18T19:36:10;7.40;;;6.60;;
64459;SDS011;50828;53.756;21.140;2023-09-18T19:41:20;9.30;;;6.70;;
64459;SDS011;50828;53.756;21.140;2023-09-18T19:46:32;9.20;;;6.80;;
64459;SDS011;50828;53.756;21.140;2023-09-18T19:51:41;15.00;;;7.30;;
64459;SDS011;50828;53.756;21.140;2023-09-18T19:56:52;10.40;;;6.80;;
64459;SDS011;50828;53.756;21.140;2023-09-18T20:01:59;10.50;;;7.10;;
64459;SDS011;50828;53.756;21.140;2023-09-18T20:07:09;9.80;;;6.90;;
64459;SDS011;50828;53.756;21.140;2023-09-18T20:12:18;10.60;;;6.60;;
64459;SDS011;50828;53.756;21.140;2023-09-18T20:17:28;8.40;;;7.00;;
64459;SDS011;50828;53.756;21.140;2023-09-18T20:22:37;9.20;;;6.90;;
64459;SDS011;50828;53.756;21.140;2023-09-18T20:27:45;10.30;;;7.40;;
64459;SDS011;50828;53.756;21.140;2023-09-18T20:32:54;10.60;;;7.40;;
64459;SDS011;50828;53.756;21.140;2023-09-18T20:38:03;10.80;;;7.90;;
64459;SDS011;50828;53.756;21.140;2023-09-18T20:43:15;12.00;;;7.80;;
64459;SDS011;50828;53.756;21.140;2023-09-18T20:48:28;10.00;;;8.00;;
64459;SDS011;50828;53.756;21.140;2023-09-18T20:53:37;12.80;;;8.30;;
64459;SDS011;50828;53.756;21.140;2023-09-18T20:58:46;11.20;;;7.70;;
64459;SDS011;50828;53.756;21.140;2023-09-18T21:04:00;10.90;;;7.90;;
64459;SDS011;50828;53.756;21.140;2023-09-18T21:09:08;10.40;;;7.90;;
64459;SDS011;50828;53.756;21.140;2023-09-18T21:14:17;11.40;;;8.40;;
64459;SDS011;50828;53.756;21.140;2023-09-18T21:19:26;11.20;;;8.50;;
64459;SDS011;50828;53.756;21.140;2023-09-18T21:24:34;12.10;;;8.60;;
64459;SDS011;50828;53.756;21.140;2023-09-18T21:29:43;14.40;;;9.60;;
64459;SDS011;50828;53.756;21.140;2023-09-18T21:34:50;12.20;;;8.80;;
64459;SDS011;50828;53.756;21.140;2023-09-18T21:39:58;13.30;;;8.60;;
64459;SDS011;50828;53.756;21.140;2023-09-18T21:45:08;14.20;;;9.10;;
64459;SDS011;50828;53.756;21.140;2023-09-18T21:50:16;13.20;;;9.00;;
64459;SDS011;50828;53.756;21.140;2023-09-18T21:55:24;15.00;;;8.80;;
64459;SDS011;50828;53.756;21.140;2023-09-18T22:00:31;13.80;;;9.10;;
64459;SDS011;50828;53.756;21.140;2023-09-18T22:05:44;15.50;;;9.80;;
64459;SDS011;50828;53.756;21.140;2023-09-18T22:10:52;13.10;;;9.20;;
64459;SDS011;50828;53.756;21.140;2023-09-18T22:16:00;12.50;;;9.00;;
64459;SDS011;50828;53.756;21.140;2023-09-18T22:21:09;12.10;;;9.40;;
64459;SDS011;50828;53.756;21.140;2023-09-18T22:26:18;14.80;;;9.70;;
64459;SDS011;50828;53.756;21.140;2023-09-18T22:31:25;14.70;;;10.20;;
64459;SDS011;50828;53.756;21.140;2023-09-18T22:36:32;16.80;;;10.30;;
64459;SDS011;50828;53.756;21.140;2023-09-18T22:57:44;12.20;;;9.30;;
64459;SDS011;50828;53.756;21.140;2023-09-18T23:02:55;15.80;;;10.20;;
64459;SDS011;50828;53.756;21.140;2023-09-18T23:08:07;12.80;;;9.60;;
64459;SDS011;50828;53.756;21.140;2023-09-18T23:13:16;17.20;;;9.90;;
64459;SDS011;50828;53.756;21.140;2023-09-18T23:18:23;13.30;;;9.70;;
64459;SDS011;50828;53.756;21.140;2023-09-18T23:23:32;12.30;;;9.30;;
64459;SDS011;50828;53.756;21.140;2023-09-18T23:28:42;14.50;;;9.50;;
64459;SDS011;50828;53.756;21.140;2023-09-18T23:33:52;13.30;;;10.10;;
64459;SDS011;50828;53.756;21.140;2023-09-18T23:38:59;14.60;;;10.20;;
64459;SDS011;50828;53.756;21.140;2023-09-18T23:44:08;15.40;;;9.80;;
64459;SDS011;50828;53.756;21.140;2023-09-18T23:49:20;13.80;;;9.90;;
64459;SDS011;50828;53.756;21.140;2023-09-18T23:54:28;15.90;;;10.70;;
64459;SDS011;50828;53.756;21.140;2023-09-18T23:59:37;14.80;;;10.50;;
